sensor_id;sensor_type;location;lat;lon;timestamp;temperature;humidity
70826;SHT31;58446;41.490;22.098;2022-08-19T00:01:20;25.73;60.63
70826;SHT31;58446;41.490;22.098;2022-08-19T00:03:46;25.79;59.89
70826;SHT31;58446;41.490;22.098;2022-08-19T00:06:12;25.82;60.18
70826;SHT31;58446;41.490;22.098;2022-08-19T00:08:38;25.83;59.90
70826;SHT31;58446;41.490;22.098;2022-08-19T00:11:03;25.86;59.77
70826;SHT31;58446;41.490;22.098;2022-08-19T00:13:29;26.26;58.50
70826;SHT31;58446;41.490;22.098;2022-08-19T00:15:56;26.27;58.49
70826;SHT31;58446;41.490;22.098;2022-08-19T00:18:22;26.24;58.39
70826;SHT31;58446;41.490;22.098;2022-08-19T00:20:47;26.07;58.85
70826;SHT31;58446;41.490;22.098;2022-08-19T00:23:13;26.26;58.23
70826;SHT31;58446;41.490;22.098;2022-08-19T00:25:40;26.41;57.62
70826;SHT31;58446;41.490;22.098;2022-08-19T00:28:06;26.31;57.76
70826;SHT31;58446;41.490;22.098;2022-08-19T00:30:31;26.41;57.48
70826;SHT31;58446;41.490;22.098;2022-08-19T00:32:58;26.18;57.87
70826;SHT31;58446;41.490;22.098;2022-08-19T00:35:24;26.26;57.54
70826;SHT31;58446;41.490;22.098;2022-08-19T00:37:50;26.09;57.98
70826;SHT31;58446;41.490;22.098;2022-08-19T00:40:17;26.09;57.93
70826;SHT31;58446;41.490;22.098;2022-08-19T00:42:43;25.63;58.95
70826;SHT31;58446;41.490;22.098;2022-08-19T00:45:21;25.48;58.64
70826;SHT31;58446;41.490;22.098;2022-08-19T00:47:48;25.29;58.91
70826;SHT31;58446;41.490;22.098;2022-08-19T00:50:16;25.07;60.23
70826;SHT31;58446;41.490;22.098;2022-08-19T00:52:45;24.92;60.69
70826;SHT31;58446;41.490;22.098;2022-08-19T00:55:19;24.86;60.71
70826;SHT31;58446;41.490;22.098;2022-08-19T00:57:50;25.04;60.04
70826;SHT31;58446;41.490;22.098;2022-08-19T01:00:18;25.08;59.06
70826;SHT31;58446;41.490;22.098;2022-08-19T01:02:45;24.46;60.60
70826;SHT31;58446;41.490;22.098;2022-08-19T01:05:15;24.28;60.26
70826;SHT31;58446;41.490;22.098;2022-08-19T01:07:41;24.55;60.38
70826;SHT31;58446;41.490;22.098;2022-08-19T01:10:13;24.74;59.04
70826;SHT31;58446;41.490;22.098;2022-08-19T01:12:40;25.01;59.64
70826;SHT31;58446;41.490;22.098;2022-08-19T01:15:09;25.10;59.36
70826;SHT31;58446;41.490;22.098;2022-08-19T01:17:36;25.10;58.52
70826;SHT31;58446;41.490;22.098;2022-08-19T01:20:05;25.01;59.41
70826;SHT31;58446;41.490;22.098;2022-08-19T01:22:44;24.90;60.33
70826;SHT31;58446;41.490;22.098;2022-08-19T01:25:10;25.22;59.15
70826;SHT31;58446;41.490;22.098;2022-08-19T01:27:43;25.06;60.41
70826;SHT31;58446;41.490;22.098;2022-08-19T01:30:13;25.17;59.34
70826;SHT31;58446;41.490;22.098;2022-08-19T01:32:39;25.53;58.43
70826;SHT31;58446;41.490;22.098;2022-08-19T01:35:05;25.68;58.18
70826;SHT31;58446;41.490;22.098;2022-08-19T01:37:42;25.85;57.79
70826;SHT31;58446;41.490;22.098;2022-08-19T01:40:09;25.58;59.05
70826;SHT31;58446;41.490;22.098;2022-08-19T01:42:35;25.31;59.64
70826;SHT31;58446;41.490;22.098;2022-08-19T01:45:01;25.32;59.25
70826;SHT31;58446;41.490;22.098;2022-08-19T01:47:26;25.37;59.18
70826;SHT31;58446;41.490;22.098;2022-08-19T01:49:52;25.28;59.31
70826;SHT31;58446;41.490;22.098;2022-08-19T01:52:18;25.25;59.54
70826;SHT31;58446;41.490;22.098;2022-08-19T01:54:44;25.15;59.97
70826;SHT31;58446;41.490;22.098;2022-08-19T01:57:12;24.64;61.06
70826;SHT31;58446;41.490;22.098;2022-08-19T01:59:40;24.04;62.70
70826;SHT31;58446;41.490;22.098;2022-08-19T02:02:07;24.74;60.77
70826;SHT31;58446;41.490;22.098;2022-08-19T02:04:34;25.34;58.99
70826;SHT31;58446;41.490;22.098;2022-08-19T02:07:00;25.52;58.25
70826;SHT31;58446;41.490;22.098;2022-08-19T02:09:26;25.53;57.85
70826;SHT31;58446;41.490;22.098;2022-08-19T02:11:51;25.68;57.54
70826;SHT31;58446;41.490;22.098;2022-08-19T02:14:18;25.78;57.20
70826;SHT31;58446;41.490;22.098;2022-08-19T02:16:44;25.78;56.67
70826;SHT31;58446;41.490;22.098;2022-08-19T02:19:10;25.56;57.54
70826;SHT31;58446;41.490;22.098;2022-08-19T02:21:36;25.68;57.26
70826;SHT31;58446;41.490;22.098;2022-08-19T02:24:03;25.78;57.01
70826;SHT31;58446;41.490;22.098;2022-08-19T02:26:29;25.73;57.00
70826;SHT31;58446;41.490;22.098;2022-08-19T02:28:55;25.49;57.48
70826;SHT31;58446;41.490;22.098;2022-08-19T02:31:23;25.46;57.62
70826;SHT31;58446;41.490;22.098;2022-08-19T02:33:49;25.43;57.74
70826;SHT31;58446;41.490;22.098;2022-08-19T02:36:16;25.18;58.35
70826;SHT31;58446;41.490;22.098;2022-08-19T02:38:43;25.38;57.93
70826;SHT31;58446;41.490;22.098;2022-08-19T02:41:15;25.63;57.23
70826;SHT31;58446;41.490;22.098;2022-08-19T02:43:41;25.68;57.20
70826;SHT31;58446;41.490;22.098;2022-08-19T02:46:24;25.43;57.65
70826;SHT31;58446;41.490;22.098;2022-08-19T02:48:53;25.31;57.95
70826;SHT31;58446;41.490;22.098;2022-08-19T02:51:22;25.45;57.48
70826;SHT31;58446;41.490;22.098;2022-08-19T02:53:48;25.37;57.64
70826;SHT31;58446;41.490;22.098;2022-08-19T02:56:14;25.48;57.09
70826;SHT31;58446;41.490;22.098;2022-08-19T02:58:40;25.46;56.99
70826;SHT31;58446;41.490;22.098;2022-08-19T03:01:06;25.41;57.27
70826;SHT31;58446;41.490;22.098;2022-08-19T03:03:32;24.98;57.80
70826;SHT31;58446;41.490;22.098;2022-08-19T03:06:10;25.03;58.10
70826;SHT31;58446;41.490;22.098;2022-08-19T03:08:37;24.84;58.05
70826;SHT31;58446;41.490;22.098;2022-08-19T03:11:03;24.77;58.41
70826;SHT31;58446;41.490;22.098;2022-08-19T03:13:29;24.50;58.67
70826;SHT31;58446;41.490;22.098;2022-08-19T03:15:55;24.63;58.51
70826;SHT31;58446;41.490;22.098;2022-08-19T03:18:20;24.47;59.13
70826;SHT31;58446;41.490;22.098;2022-08-19T03:20:48;24.53;59.14
70826;SHT31;58446;41.490;22.098;2022-08-19T03:23:15;24.59;58.91
70826;SHT31;58446;41.490;22.098;2022-08-19T03:25:46;24.57;58.68
70826;SHT31;58446;41.490;22.098;2022-08-19T03:28:14;24.32;59.02
70826;SHT31;58446;41.490;22.098;2022-08-19T03:30:40;23.54;61.16
70826;SHT31;58446;41.490;22.098;2022-08-19T03:33:07;23.57;60.59
70826;SHT31;58446;41.490;22.098;2022-08-19T03:35:34;23.37;61.33
70826;SHT31;58446;41.490;22.098;2022-08-19T03:38:03;23.19;62.41
70826;SHT31;58446;41.490;22.098;2022-08-19T03:40:29;23.31;62.00
70826;SHT31;58446;41.490;22.098;2022-08-19T03:42:56;23.50;61.46
70826;SHT31;58446;41.490;22.098;2022-08-19T03:45:22;23.30;62.19
70826;SHT31;58446;41.490;22.098;2022-08-19T03:47:48;23.58;61.52
70826;SHT31;58446;41.490;22.098;2022-08-19T03:50:14;23.41;61.52
70826;SHT31;58446;41.490;22.098;2022-08-19T03:52:40;23.82;60.44
70826;SHT31;58446;41.490;22.098;2022-08-19T03:55:06;23.90;60.75
70826;SHT31;58446;41.490;22.098;2022-08-19T03:57:33;23.84;61.25
70826;SHT31;58446;41.490;22.098;2022-08-19T03:59:59;23.90;61.28
70826;SHT31;58446;41.490;22.098;2022-08-19T04:02:25;23.97;61.30
70826;SHT31;58446;41.490;22.098;2022-08-19T04:04:54;24.13;60.55
70826;SHT31;58446;41.490;22.098;2022-08-19T04:07:20;24.47;59.44
70826;SHT31;58446;41.490;22.098;2022-08-19T04:09:48;24.74;58.72
70826;SHT31;58446;41.490;22.098;2022-08-19T04:12:14;24.71;58.95
70826;SHT31;58446;41.490;22.098;2022-08-19T04:14:40;24.70;58.99
70826;SHT31;58446;41.490;22.098;2022-08-19T04:17:06;24.83;58.70
70826;SHT31;58446;41.490;22.098;2022-08-19T04:19:34;25.00;58.23
70826;SHT31;58446;41.490;22.098;2022-08-19T04:22:00;25.25;57.47
70826;SHT31;58446;41.490;22.098;2022-08-19T04:24:26;25.39;57.04
70826;SHT31;58446;41.490;22.098;2022-08-19T04:26:52;25.43;56.95
70826;SHT31;58446;41.490;22.098;2022-08-19T04:29:22;25.69;56.27
70826;SHT31;58446;41.490;22.098;2022-08-19T04:31:51;25.76;56.23
70826;SHT31;58446;41.490;22.098;2022-08-19T04:34:19;25.92;55.95
70826;SHT31;58446;41.490;22.098;2022-08-19T04:36:49;26.10;55.29
70826;SHT31;58446;41.490;22.098;2022-08-19T04:39:19;25.86;55.88
70826;SHT31;58446;41.490;22.098;2022-08-19T04:41:45;25.97;56.24
70826;SHT31;58446;41.490;22.098;2022-08-19T04:44:31;25.80;56.47
70826;SHT31;58446;41.490;22.098;2022-08-19T04:46:57;25.87;56.48
70826;SHT31;58446;41.490;22.098;2022-08-19T04:49:24;25.72;56.86
70826;SHT31;58446;41.490;22.098;2022-08-19T04:51:52;25.75;57.62
70826;SHT31;58446;41.490;22.098;2022-08-19T04:54:19;25.42;58.21
70826;SHT31;58446;41.490;22.098;2022-08-19T04:56:52;25.70;57.58
70826;SHT31;58446;41.490;22.098;2022-08-19T04:59:19;25.94;57.09
70826;SHT31;58446;41.490;22.098;2022-08-19T05:01:46;25.90;58.48
70826;SHT31;58446;41.490;22.098;2022-08-19T05:04:14;25.93;57.59
70826;SHT31;58446;41.490;22.098;2022-08-19T05:06:42;26.09;56.92
70826;SHT31;58446;41.490;22.098;2022-08-19T05:09:08;26.14;57.33
70826;SHT31;58446;41.490;22.098;2022-08-19T05:11:36;25.94;57.94
70826;SHT31;58446;41.490;22.098;2022-08-19T05:14:06;26.00;57.54
70826;SHT31;58446;41.490;22.098;2022-08-19T05:16:32;25.96;58.02
70826;SHT31;58446;41.490;22.098;2022-08-19T05:18:57;26.01;57.74
70826;SHT31;58446;41.490;22.098;2022-08-19T05:21:42;25.78;58.89
70826;SHT31;58446;41.490;22.098;2022-08-19T05:24:27;26.06;58.07
70826;SHT31;58446;41.490;22.098;2022-08-19T05:26:54;26.27;56.69
70826;SHT31;58446;41.490;22.098;2022-08-19T05:29:23;26.37;56.49
70826;SHT31;58446;41.490;22.098;2022-08-19T05:31:50;26.62;54.81
70826;SHT31;58446;41.490;22.098;2022-08-19T05:34:19;26.79;54.83
70826;SHT31;58446;41.490;22.098;2022-08-19T05:36:51;26.75;54.10
70826;SHT31;58446;41.490;22.098;2022-08-19T05:39:27;26.69;53.49
70826;SHT31;58446;41.490;22.098;2022-08-19T05:41:55;26.88;54.37
70826;SHT31;58446;41.490;22.098;2022-08-19T05:44:27;26.98;54.95
70826;SHT31;58446;41.490;22.098;2022-08-19T05:46:55;27.02;53.62
70826;SHT31;58446;41.490;22.098;2022-08-19T05:49:22;26.95;53.26
70826;SHT31;58446;41.490;22.098;2022-08-19T05:51:48;27.18;52.71
70826;SHT31;58446;41.490;22.098;2022-08-19T05:54:14;27.36;48.49
70826;SHT31;58446;41.490;22.098;2022-08-19T05:56:41;27.30;51.71
70826;SHT31;58446;41.490;22.098;2022-08-19T05:59:08;27.35;50.69
70826;SHT31;58446;41.490;22.098;2022-08-19T06:01:38;27.66;49.00
70826;SHT31;58446;41.490;22.098;2022-08-19T06:04:04;27.76;48.86
70826;SHT31;58446;41.490;22.098;2022-08-19T06:06:30;27.73;48.59
70826;SHT31;58446;41.490;22.098;2022-08-19T06:08:56;28.00;47.70
70826;SHT31;58446;41.490;22.098;2022-08-19T06:11:45;28.14;48.97
70826;SHT31;58446;41.490;22.098;2022-08-19T06:14:16;28.22;49.03
70826;SHT31;58446;41.490;22.098;2022-08-19T06:16:44;28.44;48.41
70826;SHT31;58446;41.490;22.098;2022-08-19T06:19:12;28.38;48.04
70826;SHT31;58446;41.490;22.098;2022-08-19T06:21:40;28.59;48.24
70826;SHT31;58446;41.490;22.098;2022-08-19T06:24:09;28.80;47.37
70826;SHT31;58446;41.490;22.098;2022-08-19T06:26:37;28.79;49.31
70826;SHT31;58446;41.490;22.098;2022-08-19T06:29:08;28.87;49.56
70826;SHT31;58446;41.490;22.098;2022-08-19T06:31:35;28.97;48.90
70826;SHT31;58446;41.490;22.098;2022-08-19T06:34:03;29.11;45.92
70826;SHT31;58446;41.490;22.098;2022-08-19T06:36:33;28.93;46.70
70826;SHT31;58446;41.490;22.098;2022-08-19T06:39:05;28.93;47.74
70826;SHT31;58446;41.490;22.098;2022-08-19T06:41:35;29.10;48.72
70826;SHT31;58446;41.490;22.098;2022-08-19T06:44:01;29.18;49.05
70826;SHT31;58446;41.490;22.098;2022-08-19T06:46:27;29.43;47.56
70826;SHT31;58446;41.490;22.098;2022-08-19T06:48:54;29.64;48.11
70826;SHT31;58446;41.490;22.098;2022-08-19T06:51:21;29.79;45.49
70826;SHT31;58446;41.490;22.098;2022-08-19T06:53:48;29.67;47.07
70826;SHT31;58446;41.490;22.098;2022-08-19T06:56:17;29.72;47.92
70826;SHT31;58446;41.490;22.098;2022-08-19T06:58:43;29.90;47.99
70826;SHT31;58446;41.490;22.098;2022-08-19T07:01:09;30.10;47.17
70826;SHT31;58446;41.490;22.098;2022-08-19T07:03:37;30.19;46.05
70826;SHT31;58446;41.490;22.098;2022-08-19T07:06:11;30.25;46.89
70826;SHT31;58446;41.490;22.098;2022-08-19T07:08:38;30.12;46.22
70826;SHT31;58446;41.490;22.098;2022-08-19T07:11:09;30.39;46.58
70826;SHT31;58446;41.490;22.098;2022-08-19T07:13:37;30.36;45.42
70826;SHT31;58446;41.490;22.098;2022-08-19T07:16:08;30.46;45.85
70826;SHT31;58446;41.490;22.098;2022-08-19T07:18:36;30.36;45.33
70826;SHT31;58446;41.490;22.098;2022-08-19T07:21:09;30.44;47.16
70826;SHT31;58446;41.490;22.098;2022-08-19T07:23:35;30.70;46.62
70826;SHT31;58446;41.490;22.098;2022-08-19T07:26:09;31.01;45.17
70826;SHT31;58446;41.490;22.098;2022-08-19T07:28:35;31.14;46.28
70826;SHT31;58446;41.490;22.098;2022-08-19T07:31:09;31.34;45.65
70826;SHT31;58446;41.490;22.098;2022-08-19T07:33:35;31.45;45.27
70826;SHT31;58446;41.490;22.098;2022-08-19T07:36:06;31.34;44.59
70826;SHT31;58446;41.490;22.098;2022-08-19T07:38:33;31.48;45.30
70826;SHT31;58446;41.490;22.098;2022-08-19T07:40:59;31.52;45.79
70826;SHT31;58446;41.490;22.098;2022-08-19T07:43:26;31.67;45.25
70826;SHT31;58446;41.490;22.098;2022-08-19T07:45:53;31.70;44.60
70826;SHT31;58446;41.490;22.098;2022-08-19T07:48:27;31.93;44.07
70826;SHT31;58446;41.490;22.098;2022-08-19T07:50:57;31.97;42.44
70826;SHT31;58446;41.490;22.098;2022-08-19T07:53:25;32.02;43.82
70826;SHT31;58446;41.490;22.098;2022-08-19T07:55:51;32.10;44.90
70826;SHT31;58446;41.490;22.098;2022-08-19T07:58:20;32.30;44.15
70826;SHT31;58446;41.490;22.098;2022-08-19T08:00:49;32.41;43.24
70826;SHT31;58446;41.490;22.098;2022-08-19T08:03:23;32.58;43.13
70826;SHT31;58446;41.490;22.098;2022-08-19T08:06:09;32.70;41.27
70826;SHT31;58446;41.490;22.098;2022-08-19T08:08:54;32.51;41.99
70826;SHT31;58446;41.490;22.098;2022-08-19T08:11:45;32.45;40.49
70826;SHT31;58446;41.490;22.098;2022-08-19T08:14:22;32.26;41.96
70826;SHT31;58446;41.490;22.098;2022-08-19T08:16:51;31.98;42.44
70826;SHT31;58446;41.490;22.098;2022-08-19T08:19:20;32.00;42.53
70826;SHT31;58446;41.490;22.098;2022-08-19T08:21:47;32.10;41.40
70826;SHT31;58446;41.490;22.098;2022-08-19T08:24:13;32.17;39.18
70826;SHT31;58446;41.490;22.098;2022-08-19T08:26:40;32.33;41.39
70826;SHT31;58446;41.490;22.098;2022-08-19T08:29:06;32.40;43.52
70826;SHT31;58446;41.490;22.098;2022-08-19T08:31:34;32.58;41.09
70826;SHT31;58446;41.490;22.098;2022-08-19T08:34:00;32.72;41.32
70826;SHT31;58446;41.490;22.098;2022-08-19T08:36:25;32.74;40.65
70826;SHT31;58446;41.490;22.098;2022-08-19T08:38:52;32.68;39.60
70826;SHT31;58446;41.490;22.098;2022-08-19T08:41:44;32.75;40.36
70826;SHT31;58446;41.490;22.098;2022-08-19T08:45:10;32.88;43.48
70826;SHT31;58446;41.490;22.098;2022-08-19T08:47:15;32.96;40.58
70826;SHT31;58446;41.490;22.098;2022-08-19T08:49:53;33.06;41.69
70826;SHT31;58446;41.490;22.098;2022-08-19T08:52:32;33.12;41.65
70826;SHT31;58446;41.490;22.098;2022-08-19T08:55:09;33.22;39.37
70826;SHT31;58446;41.490;22.098;2022-08-19T08:57:49;33.23;39.38
70826;SHT31;58446;41.490;22.098;2022-08-19T09:00:35;33.26;40.07
70826;SHT31;58446;41.490;22.098;2022-08-19T09:03:03;33.43;41.40
70826;SHT31;58446;41.490;22.098;2022-08-19T09:05:59;33.69;40.03
70826;SHT31;58446;41.490;22.098;2022-08-19T09:08:43;33.69;38.56
70826;SHT31;58446;41.490;22.098;2022-08-19T09:11:15;33.72;40.36
70826;SHT31;58446;41.490;22.098;2022-08-19T09:16:46;33.73;37.36
70826;SHT31;58446;41.490;22.098;2022-08-19T09:19:13;33.78;39.88
70826;SHT31;58446;41.490;22.098;2022-08-19T09:21:39;33.94;39.46
70826;SHT31;58446;41.490;22.098;2022-08-19T09:24:05;33.84;38.69
70826;SHT31;58446;41.490;22.098;2022-08-19T09:26:32;33.23;38.92
70826;SHT31;58446;41.490;22.098;2022-08-19T09:28:58;33.41;40.15
70826;SHT31;58446;41.490;22.098;2022-08-19T09:31:27;33.67;39.51
70826;SHT31;58446;41.490;22.098;2022-08-19T09:33:54;33.78;40.08
70826;SHT31;58446;41.490;22.098;2022-08-19T09:36:23;33.86;37.83
70826;SHT31;58446;41.490;22.098;2022-08-19T09:38:51;34.07;39.98
70826;SHT31;58446;41.490;22.098;2022-08-19T09:41:22;34.11;38.21
70826;SHT31;58446;41.490;22.098;2022-08-19T09:43:50;34.08;37.73
70826;SHT31;58446;41.490;22.098;2022-08-19T09:46:22;34.27;38.61
70826;SHT31;58446;41.490;22.098;2022-08-19T09:48:49;34.18;39.42
70826;SHT31;58446;41.490;22.098;2022-08-19T09:51:21;34.37;38.33
70826;SHT31;58446;41.490;22.098;2022-08-19T09:53:49;34.41;37.25
70826;SHT31;58446;41.490;22.098;2022-08-19T09:56:17;34.42;37.44
70826;SHT31;58446;41.490;22.098;2022-08-19T09:58:43;34.27;37.37
70826;SHT31;58446;41.490;22.098;2022-08-19T10:01:16;34.40;36.06
70826;SHT31;58446;41.490;22.098;2022-08-19T10:03:41;34.42;36.28
70826;SHT31;58446;41.490;22.098;2022-08-19T10:06:07;34.44;37.74
70826;SHT31;58446;41.490;22.098;2022-08-19T10:08:36;34.56;39.99
70826;SHT31;58446;41.490;22.098;2022-08-19T10:11:03;34.51;37.13
70826;SHT31;58446;41.490;22.098;2022-08-19T10:13:30;34.75;37.57
70826;SHT31;58446;41.490;22.098;2022-08-19T10:16:05;34.76;37.96
70826;SHT31;58446;41.490;22.098;2022-08-19T10:18:32;34.91;37.21
70826;SHT31;58446;41.490;22.098;2022-08-19T10:21:18;34.96;36.43
70826;SHT31;58446;41.490;22.098;2022-08-19T10:23:48;34.92;34.55
70826;SHT31;58446;41.490;22.098;2022-08-19T10:26:16;34.82;36.26
70826;SHT31;58446;41.490;22.098;2022-08-19T10:28:43;34.85;38.47
70826;SHT31;58446;41.490;22.098;2022-08-19T10:31:12;34.92;36.66
70826;SHT31;58446;41.490;22.098;2022-08-19T10:33:39;35.02;38.39
70826;SHT31;58446;41.490;22.098;2022-08-19T10:36:13;35.14;35.35
70826;SHT31;58446;41.490;22.098;2022-08-19T10:38:41;35.27;33.72
70826;SHT31;58446;41.490;22.098;2022-08-19T10:41:14;35.22;36.20
70826;SHT31;58446;41.490;22.098;2022-08-19T10:43:41;35.30;35.03
70826;SHT31;58446;41.490;22.098;2022-08-19T10:46:10;35.13;33.99
70826;SHT31;58446;41.490;22.098;2022-08-19T10:48:36;35.13;34.08
70826;SHT31;58446;41.490;22.098;2022-08-19T10:51:03;35.17;34.90
70826;SHT31;58446;41.490;22.098;2022-08-19T10:53:47;35.10;34.68
70826;SHT31;58446;41.490;22.098;2022-08-19T10:56:13;35.17;34.79
70826;SHT31;58446;41.490;22.098;2022-08-19T10:58:57;35.32;34.73
70826;SHT31;58446;41.490;22.098;2022-08-19T11:01:24;35.33;32.91
70826;SHT31;58446;41.490;22.098;2022-08-19T11:03:50;35.47;34.05
70826;SHT31;58446;41.490;22.098;2022-08-19T11:06:16;35.60;31.98
70826;SHT31;58446;41.490;22.098;2022-08-19T11:08:42;35.19;32.26
70826;SHT31;58446;41.490;22.098;2022-08-19T11:11:12;34.98;32.93
70826;SHT31;58446;41.490;22.098;2022-08-19T11:13:39;35.17;32.22
70826;SHT31;58446;41.490;22.098;2022-08-19T11:16:10;35.42;31.92
70826;SHT31;58446;41.490;22.098;2022-08-19T11:18:42;35.55;31.28
70826;SHT31;58446;41.490;22.098;2022-08-19T11:21:25;35.64;30.24
70826;SHT31;58446;41.490;22.098;2022-08-19T11:23:54;35.78;32.63
70826;SHT31;58446;41.490;22.098;2022-08-19T11:26:22;35.84;30.75
70826;SHT31;58446;41.490;22.098;2022-08-19T11:28:49;35.94;30.90
70826;SHT31;58446;41.490;22.098;2022-08-19T11:31:20;36.04;31.61
70826;SHT31;58446;41.490;22.098;2022-08-19T11:33:46;36.11;30.94
70826;SHT31;58446;41.490;22.098;2022-08-19T11:36:12;36.11;29.82
70826;SHT31;58446;41.490;22.098;2022-08-19T11:38:38;36.17;30.74
70826;SHT31;58446;41.490;22.098;2022-08-19T11:41:06;36.12;31.65
70826;SHT31;58446;41.490;22.098;2022-08-19T11:43:33;36.18;29.92
70826;SHT31;58446;41.490;22.098;2022-08-19T11:46:03;36.24;30.61
70826;SHT31;58446;41.490;22.098;2022-08-19T11:48:28;36.31;29.49
70826;SHT31;58446;41.490;22.098;2022-08-19T11:50:54;36.36;30.79
70826;SHT31;58446;41.490;22.098;2022-08-19T11:53:23;36.00;31.29
70826;SHT31;58446;41.490;22.098;2022-08-19T11:55:50;36.20;29.81
70826;SHT31;58446;41.490;22.098;2022-08-19T11:58:16;36.21;30.36
70826;SHT31;58446;41.490;22.098;2022-08-19T12:00:43;36.27;30.84
70826;SHT31;58446;41.490;22.098;2022-08-19T12:03:11;36.42;30.02
70826;SHT31;58446;41.490;22.098;2022-08-19T12:05:38;36.38;30.06
70826;SHT31;58446;41.490;22.098;2022-08-19T12:08:04;36.52;29.27
70826;SHT31;58446;41.490;22.098;2022-08-19T12:10:30;36.55;29.89
70826;SHT31;58446;41.490;22.098;2022-08-19T12:12:55;36.59;29.23
70826;SHT31;58446;41.490;22.098;2022-08-19T12:15:21;36.65;29.65
70826;SHT31;58446;41.490;22.098;2022-08-19T12:17:47;36.66;28.72
70826;SHT31;58446;41.490;22.098;2022-08-19T12:20:13;36.66;29.90
70826;SHT31;58446;41.490;22.098;2022-08-19T12:22:41;36.76;29.49
70826;SHT31;58446;41.490;22.098;2022-08-19T12:25:10;36.83;29.49
70826;SHT31;58446;41.490;22.098;2022-08-19T12:27:36;36.80;29.58
70826;SHT31;58446;41.490;22.098;2022-08-19T12:30:03;36.84;28.62
70826;SHT31;58446;41.490;22.098;2022-08-19T12:32:29;36.82;28.26
70826;SHT31;58446;41.490;22.098;2022-08-19T12:34:55;36.82;28.95
70826;SHT31;58446;41.490;22.098;2022-08-19T12:37:20;36.82;28.36
70826;SHT31;58446;41.490;22.098;2022-08-19T12:39:46;36.79;29.24
70826;SHT31;58446;41.490;22.098;2022-08-19T12:42:13;36.83;29.51
70826;SHT31;58446;41.490;22.098;2022-08-19T12:44:41;36.87;29.99
70826;SHT31;58446;41.490;22.098;2022-08-19T12:47:08;36.94;29.35
70826;SHT31;58446;41.490;22.098;2022-08-19T12:49:36;36.99;28.37
70826;SHT31;58446;41.490;22.098;2022-08-19T12:52:05;37.03;28.27
70826;SHT31;58446;41.490;22.098;2022-08-19T12:54:33;37.09;28.32
70826;SHT31;58446;41.490;22.098;2022-08-19T12:56:59;37.04;28.20
70826;SHT31;58446;41.490;22.098;2022-08-19T12:59:26;37.03;28.46
70826;SHT31;58446;41.490;22.098;2022-08-19T13:01:51;37.10;28.80
70826;SHT31;58446;41.490;22.098;2022-08-19T13:04:18;37.14;27.78
70826;SHT31;58446;41.490;22.098;2022-08-19T13:06:43;37.14;28.15
70826;SHT31;58446;41.490;22.098;2022-08-19T13:09:10;37.11;27.90
70826;SHT31;58446;41.490;22.098;2022-08-19T13:11:37;37.19;28.16
70826;SHT31;58446;41.490;22.098;2022-08-19T13:14:03;37.23;27.79
70826;SHT31;58446;41.490;22.098;2022-08-19T13:16:29;37.24;28.49
70826;SHT31;58446;41.490;22.098;2022-08-19T13:18:56;37.19;28.63
70826;SHT31;58446;41.490;22.098;2022-08-19T13:21:25;37.16;28.57
70826;SHT31;58446;41.490;22.098;2022-08-19T13:23:53;37.20;28.40
70826;SHT31;58446;41.490;22.098;2022-08-19T13:26:20;37.26;27.31
70826;SHT31;58446;41.490;22.098;2022-08-19T13:28:45;37.31;28.51
70826;SHT31;58446;41.490;22.098;2022-08-19T13:31:43;37.30;27.93
70826;SHT31;58446;41.490;22.098;2022-08-19T13:34:33;37.29;27.42
70826;SHT31;58446;41.490;22.098;2022-08-19T13:37:01;37.23;28.76
70826;SHT31;58446;41.490;22.098;2022-08-19T13:39:29;37.33;28.82
70826;SHT31;58446;41.490;22.098;2022-08-19T13:41:55;37.19;28.74
70826;SHT31;58446;41.490;22.098;2022-08-19T13:44:20;37.17;29.82
70826;SHT31;58446;41.490;22.098;2022-08-19T13:46:47;37.14;29.16
70826;SHT31;58446;41.490;22.098;2022-08-19T13:49:14;37.13;28.72
70826;SHT31;58446;41.490;22.098;2022-08-19T13:51:42;37.19;28.50
70826;SHT31;58446;41.490;22.098;2022-08-19T13:54:09;37.23;28.01
70826;SHT31;58446;41.490;22.098;2022-08-19T13:56:40;37.33;28.44
70826;SHT31;58446;41.490;22.098;2022-08-19T13:59:06;37.37;27.18
70826;SHT31;58446;41.490;22.098;2022-08-19T14:01:32;37.37;27.65
70826;SHT31;58446;41.490;22.098;2022-08-19T14:03:57;37.38;26.48
70826;SHT31;58446;41.490;22.098;2022-08-19T14:06:23;37.35;28.41
70826;SHT31;58446;41.490;22.098;2022-08-19T14:08:50;37.35;28.35
70826;SHT31;58446;41.490;22.098;2022-08-19T14:11:17;37.27;28.66
70826;SHT31;58446;41.490;22.098;2022-08-19T14:13:42;37.29;28.29
70826;SHT31;58446;41.490;22.098;2022-08-19T14:16:09;37.24;28.40
70826;SHT31;58446;41.490;22.098;2022-08-19T14:18:39;37.23;28.25
70826;SHT31;58446;41.490;22.098;2022-08-19T14:21:06;37.24;28.25
70826;SHT31;58446;41.490;22.098;2022-08-19T14:23:33;37.23;27.60
70826;SHT31;58446;41.490;22.098;2022-08-19T14:26:10;37.31;26.69
70826;SHT31;58446;41.490;22.098;2022-08-19T14:28:37;37.33;27.69
70826;SHT31;58446;41.490;22.098;2022-08-19T14:31:10;37.33;27.07
70826;SHT31;58446;41.490;22.098;2022-08-19T14:33:36;37.30;27.15
70826;SHT31;58446;41.490;22.098;2022-08-19T14:36:02;37.34;27.57
70826;SHT31;58446;41.490;22.098;2022-08-19T14:38:30;37.37;27.40
70826;SHT31;58446;41.490;22.098;2022-08-19T14:41:17;37.35;27.73
70826;SHT31;58446;41.490;22.098;2022-08-19T14:43:49;37.38;27.94
70826;SHT31;58446;41.490;22.098;2022-08-19T14:46:20;37.34;26.89
70826;SHT31;58446;41.490;22.098;2022-08-19T14:48:47;37.33;27.91
70826;SHT31;58446;41.490;22.098;2022-08-19T14:51:13;37.24;28.02
70826;SHT31;58446;41.490;22.098;2022-08-19T14:53:40;37.20;28.17
70826;SHT31;58446;41.490;22.098;2022-08-19T14:56:11;37.26;27.95
70826;SHT31;58446;41.490;22.098;2022-08-19T14:58:40;37.29;27.74
70826;SHT31;58446;41.490;22.098;2022-08-19T15:01:08;37.30;27.88
70826;SHT31;58446;41.490;22.098;2022-08-19T15:03:34;37.30;27.43
70826;SHT31;58446;41.490;22.098;2022-08-19T15:06:01;37.33;27.05
70826;SHT31;58446;41.490;22.098;2022-08-19T15:08:29;37.34;27.19
70826;SHT31;58446;41.490;22.098;2022-08-19T15:10:56;37.27;27.47
70826;SHT31;58446;41.490;22.098;2022-08-19T15:13:22;37.24;27.44
70826;SHT31;58446;41.490;22.098;2022-08-19T15:15:47;37.21;26.93
70826;SHT31;58446;41.490;22.098;2022-08-19T15:18:13;37.29;27.62
70826;SHT31;58446;41.490;22.098;2022-08-19T15:20:39;37.23;26.82
70826;SHT31;58446;41.490;22.098;2022-08-19T15:23:06;37.21;27.32
70826;SHT31;58446;41.490;22.098;2022-08-19T15:25:31;37.17;27.43
70826;SHT31;58446;41.490;22.098;2022-08-19T15:27:58;37.10;27.92